Карточка аэропорта UNKL

Внимание!
Информация на этой странице в стадии наполнения.
Если вы не увидели какой-то информации, или заметили неточность - пожалуйста сообщите нам!
Спасибо!
Команда RU-STAFF
Название аэропортаЕмельяново
Название аэропорта (англ.)Yemelyanovo
Превышение942 ft. (287.1 m.)
Координаты56°10.386', 92°29.598'
Высота перехода1200m
Эшелон переходаQFE>=729mm: FL060; QFE<729mm: FL070
Коды ответчика5320-5377
Зона ОрВДКрасноярск РПИ (UNKL)
Данные METARUNKL 010500Z 27007MPS 3800 -SN DRSN BKN034 M16/M20 Q1032 R29/420150 NOSIG RMK QFE748
Проноз погоды (TAF)UNKL 010259Z 0103/0203 28007G14MPS 3500 -SHSN BKN016CB TEMPO 0103/0105 1500 SHSN BECMG 0105/0107 6000 -SHSN TEMPO 0107/0111 1000 SHSN BECMG 0111/0113 27002G07MPS
NOTAMshow/hide NOTAM
AWOS   TABLE

Информация о ВПП

ВПП Длина ВПП (м.) Покрытие Курс ВПП Частота ILS
113700Асфальтобетон109110.5
293700Асфальтобетон289111.7

Диспетчерские позиции

Позывной Наименование органа УВД Частота
UNKL_TWRКрасноярск-Старт/Посадка118.3
UNKL_GNDКрасноярск-Руление121.9
UNKL_APPКрасноярск-Подход127.7
UNKL_R_APPКрасноярск-Круг122.0



Спутниковое изображение